sensor_id;sensor_type;location;lat;lon;timestamp;pressure;altitude;pressure_sealevel;temperature;humidity
75166;BME280;63747;48.042;10.088;2023-04-06T00:02:00;95364.00;;;-1.22;54.18
75166;BME280;63747;48.042;10.088;2023-04-06T00:05:01;95355.75;;;-1.28;54.33
75166;BME280;63747;48.042;10.088;2023-04-06T00:08:02;95357.44;;;-1.27;54.73
75166;BME280;63747;48.042;10.088;2023-04-06T00:11:02;95356.69;;;-1.29;54.66
75166;BME280;63747;48.042;10.088;2023-04-06T00:14:03;95354.09;;;-1.29;54.58
75166;BME280;63747;48.042;10.088;2023-04-06T00:17:04;95352.53;;;-1.32;54.59
75166;BME280;63747;48.042;10.088;2023-04-06T00:20:05;95345.66;;;-1.33;54.68
75166;BME280;63747;48.042;10.088;2023-04-06T00:23:06;95345.31;;;-1.41;54.13
75166;BME280;63747;48.042;10.088;2023-04-06T00:26:08;95354.72;;;-1.53;54.63
75166;BME280;63747;48.042;10.088;2023-04-06T00:29:10;95354.28;;;-1.59;54.87
75166;BME280;63747;48.042;10.088;2023-04-06T00:32:11;95345.81;;;-1.63;54.78
75166;BME280;63747;48.042;10.088;2023-04-06T00:35:11;95347.97;;;-1.70;55.17
75166;BME280;63747;48.042;10.088;2023-04-06T00:38:13;95348.63;;;-1.66;55.11
75166;BME280;63747;48.042;10.088;2023-04-06T00:41:14;95349.66;;;-1.69;55.06
75166;BME280;63747;48.042;10.088;2023-04-06T00:44:14;95342.97;;;-1.73;55.21
75166;BME280;63747;48.042;10.088;2023-04-06T00:47:15;95342.31;;;-1.76;55.01
75166;BME280;63747;48.042;10.088;2023-04-06T00:50:16;95340.03;;;-1.81;55.37
75166;BME280;63747;48.042;10.088;2023-04-06T00:53:17;95340.41;;;-1.87;55.30
75166;BME280;63747;48.042;10.088;2023-04-06T00:56:18;95338.19;;;-1.93;55.62
75166;BME280;63747;48.042;10.088;2023-04-06T00:59:19;95334.28;;;-2.00;55.60
75166;BME280;63747;48.042;10.088;2023-04-06T01:02:20;95329.09;;;-2.00;55.70
75166;BME280;63747;48.042;10.088;2023-04-06T01:05:20;95329.94;;;-2.00;55.69
75166;BME280;63747;48.042;10.088;2023-04-06T01:08:21;95330.28;;;-2.06;55.86
75166;BME280;63747;48.042;10.088;2023-04-06T01:11:22;95329.66;;;-2.09;56.00
75166;BME280;63747;48.042;10.088;2023-04-06T01:14:23;95333.38;;;-2.13;56.28
75166;BME280;63747;48.042;10.088;2023-04-06T01:17:24;95320.47;;;-2.15;56.14
75166;BME280;63747;48.042;10.088;2023-04-06T01:20:25;95322.41;;;-2.18;56.17
75166;BME280;63747;48.042;10.088;2023-04-06T01:23:26;95324.56;;;-2.25;56.45
75166;BME280;63747;48.042;10.088;2023-04-06T01:26:27;95321.13;;;-2.26;56.49
75166;BME280;63747;48.042;10.088;2023-04-06T01:29:29;95311.00;;;-2.30;56.54
75166;BME280;63747;48.042;10.088;2023-04-06T01:32:30;95312.69;;;-2.29;56.52
75166;BME280;63747;48.042;10.088;2023-04-06T01:35:30;95313.59;;;-2.30;56.57
75166;BME280;63747;48.042;10.088;2023-04-06T01:38:31;95303.41;;;-2.33;56.71
75166;BME280;63747;48.042;10.088;2023-04-06T01:41:32;95295.06;;;-2.38;56.85
75166;BME280;63747;48.042;10.088;2023-04-06T01:44:32;95304.44;;;-2.36;56.67
75166;BME280;63747;48.042;10.088;2023-04-06T01:47:33;95300.16;;;-2.37;56.69
75166;BME280;63747;48.042;10.088;2023-04-06T01:50:33;95308.34;;;-2.43;56.98
75166;BME280;63747;48.042;10.088;2023-04-06T01:53:34;95311.19;;;-2.47;57.20
75166;BME280;63747;48.042;10.088;2023-04-06T01:56:35;95308.03;;;-2.53;57.35
75166;BME280;63747;48.042;10.088;2023-04-06T01:59:36;95297.66;;;-2.53;57.34
75166;BME280;63747;48.042;10.088;2023-04-06T02:02:36;95302.03;;;-2.53;57.37
75166;BME280;63747;48.042;10.088;2023-04-06T02:05:37;95295.34;;;-2.57;57.17
75166;BME280;63747;48.042;10.088;2023-04-06T02:08:38;95298.59;;;-2.54;57.36
75166;BME280;63747;48.042;10.088;2023-04-06T02:11:38;95296.25;;;-2.58;57.37
75166;BME280;63747;48.042;10.088;2023-04-06T02:14:39;95292.09;;;-2.61;57.39
75166;BME280;63747;48.042;10.088;2023-04-06T02:17:40;95295.78;;;-2.65;57.30
75166;BME280;63747;48.042;10.088;2023-04-06T02:20:41;95292.66;;;-2.70;57.39
75166;BME280;63747;48.042;10.088;2023-04-06T02:23:42;95293.66;;;-2.72;57.68
75166;BME280;63747;48.042;10.088;2023-04-06T02:26:42;95291.25;;;-2.75;57.62
75166;BME280;63747;48.042;10.088;2023-04-06T02:29:43;95287.84;;;-2.76;57.82
75166;BME280;63747;48.042;10.088;2023-04-06T02:32:44;95290.97;;;-2.71;57.75
75166;BME280;63747;48.042;10.088;2023-04-06T02:35:45;95295.31;;;-2.71;57.71
75166;BME280;63747;48.042;10.088;2023-04-06T02:38:48;95296.25;;;-2.72;57.92
75166;BME280;63747;48.042;10.088;2023-04-06T02:41:49;95284.41;;;-2.76;57.68
75166;BME280;63747;48.042;10.088;2023-04-06T02:44:50;95292.34;;;-2.80;57.81
75166;BME280;63747;48.042;10.088;2023-04-06T02:47:50;95287.16;;;-2.80;57.76
75166;BME280;63747;48.042;10.088;2023-04-06T02:50:51;95290.13;;;-2.86;57.65
75166;BME280;63747;48.042;10.088;2023-04-06T02:53:52;95279.84;;;-2.87;57.75
75166;BME280;63747;48.042;10.088;2023-04-06T02:56:53;95289.03;;;-2.82;57.83
75166;BME280;63747;48.042;10.088;2023-04-06T02:59:56;95287.63;;;-2.87;57.71
75166;BME280;63747;48.042;10.088;2023-04-06T03:02:57;95285.56;;;-2.96;57.98
75166;BME280;63747;48.042;10.088;2023-04-06T03:05:57;95287.41;;;-2.98;58.03
75166;BME280;63747;48.042;10.088;2023-04-06T03:08:59;95292.59;;;-2.98;58.13
75166;BME280;63747;48.042;10.088;2023-04-06T03:12:00;95288.69;;;-3.06;58.04
75166;BME280;63747;48.042;10.088;2023-04-06T03:15:01;95290.06;;;-3.14;58.23
75166;BME280;63747;48.042;10.088;2023-04-06T03:18:02;95292.47;;;-3.11;58.20
75166;BME280;63747;48.042;10.088;2023-04-06T03:21:03;95287.59;;;-3.01;58.15
75166;BME280;63747;48.042;10.088;2023-04-06T03:24:05;95290.81;;;-2.98;58.11
75166;BME280;63747;48.042;10.088;2023-04-06T03:27:06;95293.50;;;-2.99;58.24
75166;BME280;63747;48.042;10.088;2023-04-06T03:30:07;95292.09;;;-3.05;58.02
75166;BME280;63747;48.042;10.088;2023-04-06T03:33:07;95296.66;;;-3.09;58.23
75166;BME280;63747;48.042;10.088;2023-04-06T03:36:08;95287.22;;;-3.10;58.37
75166;BME280;63747;48.042;10.088;2023-04-06T03:39:09;95288.97;;;-3.10;58.41
75166;BME280;63747;48.042;10.088;2023-04-06T03:42:10;95295.00;;;-3.10;58.42
75166;BME280;63747;48.042;10.088;2023-04-06T03:45:10;95280.72;;;-3.17;58.39
75166;BME280;63747;48.042;10.088;2023-04-06T03:48:13;95285.31;;;-3.22;58.66
75166;BME280;63747;48.042;10.088;2023-04-06T03:51:14;95292.34;;;-3.24;58.68
75166;BME280;63747;48.042;10.088;2023-04-06T03:54:14;95289.75;;;-3.24;58.65
75166;BME280;63747;48.042;10.088;2023-04-06T03:57:15;95296.44;;;-3.20;58.61
75166;BME280;63747;48.042;10.088;2023-04-06T04:00:16;95291.97;;;-3.18;58.66
75166;BME280;63747;48.042;10.088;2023-04-06T04:03:16;95305.72;;;-3.16;58.89
75166;BME280;63747;48.042;10.088;2023-04-06T04:06:17;95302.00;;;-3.12;58.96
75166;BME280;63747;48.042;10.088;2023-04-06T04:09:18;95310.25;;;-3.05;58.97
75166;BME280;63747;48.042;10.088;2023-04-06T04:12:18;95309.06;;;-2.99;58.85
75166;BME280;63747;48.042;10.088;2023-04-06T04:15:19;95303.88;;;-2.99;58.91
75166;BME280;63747;48.042;10.088;2023-04-06T04:18:20;95295.28;;;-3.00;58.88
75166;BME280;63747;48.042;10.088;2023-04-06T04:21:21;95300.22;;;-2.95;58.83
75166;BME280;63747;48.042;10.088;2023-04-06T04:24:21;95298.53;;;-2.96;58.72
75166;BME280;63747;48.042;10.088;2023-04-06T04:27:22;95302.13;;;-2.99;58.84
75166;BME280;63747;48.042;10.088;2023-04-06T04:30:23;95306.47;;;-2.99;58.79
75166;BME280;63747;48.042;10.088;2023-04-06T04:33:24;95312.44;;;-2.97;58.87
75166;BME280;63747;48.042;10.088;2023-04-06T04:36:24;95311.50;;;-2.96;58.83
75166;BME280;63747;48.042;10.088;2023-04-06T04:39:25;95304.66;;;-2.97;58.67
75166;BME280;63747;48.042;10.088;2023-04-06T04:42:26;95315.66;;;-2.94;58.70
75166;BME280;63747;48.042;10.088;2023-04-06T04:45:27;95311.41;;;-2.95;58.69
75166;BME280;63747;48.042;10.088;2023-04-06T04:48:27;95317.53;;;-2.96;58.92
75166;BME280;63747;48.042;10.088;2023-04-06T04:51:28;95313.28;;;-2.97;58.91
75166;BME280;63747;48.042;10.088;2023-04-06T04:54:29;95310.47;;;-2.94;59.01
75166;BME280;63747;48.042;10.088;2023-04-06T04:57:29;95314.38;;;-2.87;59.07
75166;BME280;63747;48.042;10.088;2023-04-06T05:00:30;95321.13;;;-2.84;59.09
75166;BME280;63747;48.042;10.088;2023-04-06T05:03:32;95326.91;;;-2.79;59.09
75166;BME280;63747;48.042;10.088;2023-04-06T05:06:33;95333.50;;;-2.73;58.65
75166;BME280;63747;48.042;10.088;2023-04-06T05:09:34;95332.31;;;-2.68;58.77
75166;BME280;63747;48.042;10.088;2023-04-06T05:12:34;95326.94;;;-2.65;58.86
75166;BME280;63747;48.042;10.088;2023-04-06T05:15:35;95332.53;;;-2.57;59.26
75166;BME280;63747;48.042;10.088;2023-04-06T05:18:38;95327.97;;;-2.53;59.04
75166;BME280;63747;48.042;10.088;2023-04-06T05:21:38;95341.41;;;-2.46;59.22
75166;BME280;63747;48.042;10.088;2023-04-06T05:24:39;95335.03;;;-2.41;59.33
75166;BME280;63747;48.042;10.088;2023-04-06T05:27:40;95332.91;;;-2.34;59.24
75166;BME280;63747;48.042;10.088;2023-04-06T05:30:42;95340.59;;;-2.33;59.20
75166;BME280;63747;48.042;10.088;2023-04-06T05:33:43;95336.53;;;-2.22;58.68
75166;BME280;63747;48.042;10.088;2023-04-06T05:36:44;95338.81;;;-2.18;58.82
75166;BME280;63747;48.042;10.088;2023-04-06T05:39:44;95350.88;;;-2.17;58.76
75166;BME280;63747;48.042;10.088;2023-04-06T05:42:45;95345.50;;;-2.14;58.82
75166;BME280;63747;48.042;10.088;2023-04-06T05:45:46;95338.81;;;-2.04;58.84
75166;BME280;63747;48.042;10.088;2023-04-06T05:48:47;95347.06;;;-1.97;58.69
75166;BME280;63747;48.042;10.088;2023-04-06T05:51:48;95341.59;;;-1.92;58.72
75166;BME280;63747;48.042;10.088;2023-04-06T05:54:48;95352.09;;;-1.80;58.94
75166;BME280;63747;48.042;10.088;2023-04-06T05:57:50;95356.03;;;-1.60;58.63
75166;BME280;63747;48.042;10.088;2023-04-06T06:00:50;95357.72;;;-1.59;58.74
75166;BME280;63747;48.042;10.088;2023-04-06T06:03:51;95356.38;;;-1.52;58.84
75166;BME280;63747;48.042;10.088;2023-04-06T06:06:52;95353.13;;;-1.41;58.68
75166;BME280;63747;48.042;10.088;2023-04-06T06:09:52;95355.41;;;-1.36;58.40
75166;BME280;63747;48.042;10.088;2023-04-06T06:12:56;95364.88;;;-1.35;58.35
75166;BME280;63747;48.042;10.088;2023-04-06T06:15:57;95359.59;;;-1.34;58.57
75166;BME280;63747;48.042;10.088;2023-04-06T06:18:58;95360.94;;;-1.28;58.70
75166;BME280;63747;48.042;10.088;2023-04-06T06:21:58;95360.03;;;-1.27;58.46
75166;BME280;63747;48.042;10.088;2023-04-06T06:25:02;95367.53;;;-1.23;58.47
75166;BME280;63747;48.042;10.088;2023-04-06T06:28:03;95361.84;;;-1.15;58.48
75166;BME280;63747;48.042;10.088;2023-04-06T06:31:03;95363.88;;;-1.06;58.36
75166;BME280;63747;48.042;10.088;2023-04-06T06:34:04;95359.78;;;-1.10;58.20
75166;BME280;63747;48.042;10.088;2023-04-06T06:37:05;95361.88;;;-1.02;58.01
75166;BME280;63747;48.042;10.088;2023-04-06T06:40:07;95357.69;;;-0.78;57.98
75166;BME280;63747;48.042;10.088;2023-04-06T06:43:08;95363.81;;;-0.39;57.64
75166;BME280;63747;48.042;10.088;2023-04-06T06:46:08;95357.16;;;-0.05;57.11
75166;BME280;63747;48.042;10.088;2023-04-06T06:49:09;95364.41;;;0.28;56.75
75166;BME280;63747;48.042;10.088;2023-04-06T06:52:12;95359.75;;;0.57;56.64
75166;BME280;63747;48.042;10.088;2023-04-06T06:55:12;95365.16;;;0.91;56.41
75166;BME280;63747;48.042;10.088;2023-04-06T06:58:13;95352.38;;;1.23;56.07
75166;BME280;63747;48.042;10.088;2023-04-06T07:01:14;95360.66;;;1.63;55.73
75166;BME280;63747;48.042;10.088;2023-04-06T07:04:15;95359.88;;;1.74;55.10
75166;BME280;63747;48.042;10.088;2023-04-06T07:07:15;95359.44;;;1.91;54.89
75166;BME280;63747;48.042;10.088;2023-04-06T07:10:16;95358.59;;;1.79;54.69
75166;BME280;63747;48.042;10.088;2023-04-06T07:13:17;95355.94;;;1.57;54.85
75166;BME280;63747;48.042;10.088;2023-04-06T07:16:21;95355.41;;;1.98;54.62
75166;BME280;63747;48.042;10.088;2023-04-06T07:19:22;95342.94;;;1.91;54.59
75166;BME280;63747;48.042;10.088;2023-04-06T07:22:23;95355.38;;;1.87;55.05
75166;BME280;63747;48.042;10.088;2023-04-06T07:25:23;95365.03;;;1.98;54.68
75166;BME280;63747;48.042;10.088;2023-04-06T07:28:24;95362.78;;;2.15;54.72
75166;BME280;63747;48.042;10.088;2023-04-06T07:31:25;95358.88;;;2.21;54.66
75166;BME280;63747;48.042;10.088;2023-04-06T07:34:25;95360.41;;;2.35;54.05
75166;BME280;63747;48.042;10.088;2023-04-06T07:37:26;95368.88;;;2.38;54.13
75166;BME280;63747;48.042;10.088;2023-04-06T07:40:27;95360.72;;;2.75;53.63
75166;BME280;63747;48.042;10.088;2023-04-06T07:43:27;95354.56;;;3.19;53.21
75166;BME280;63747;48.042;10.088;2023-04-06T07:46:28;95359.53;;;3.22;52.98
75166;BME280;63747;48.042;10.088;2023-04-06T07:49:29;95359.38;;;3.35;52.85
75166;BME280;63747;48.042;10.088;2023-04-06T07:52:30;95355.38;;;3.52;52.85
75166;BME280;63747;48.042;10.088;2023-04-06T07:55:32;95353.47;;;3.96;52.14
75166;BME280;63747;48.042;10.088;2023-04-06T07:58:32;95347.00;;;4.00;51.96
75166;BME280;63747;48.042;10.088;2023-04-06T08:01:33;95355.06;;;4.39;51.30
75166;BME280;63747;48.042;10.088;2023-04-06T08:04:35;95353.25;;;4.70;50.92
75166;BME280;63747;48.042;10.088;2023-04-06T08:07:35;95357.72;;;4.98;50.71
75166;BME280;63747;48.042;10.088;2023-04-06T08:10:36;95344.91;;;5.34;50.19
75166;BME280;63747;48.042;10.088;2023-04-06T08:13:37;95342.69;;;5.58;50.58
75166;BME280;63747;48.042;10.088;2023-04-06T08:16:37;95333.97;;;5.77;49.83
75166;BME280;63747;48.042;10.088;2023-04-06T08:19:38;95339.75;;;6.00;49.25
75166;BME280;63747;48.042;10.088;2023-04-06T08:22:39;95340.25;;;6.23;48.82
75166;BME280;63747;48.042;10.088;2023-04-06T08:25:40;95344.88;;;6.48;48.91
75166;BME280;63747;48.042;10.088;2023-04-06T08:28:40;95338.72;;;6.58;48.24
75166;BME280;63747;48.042;10.088;2023-04-06T08:31:41;95337.88;;;6.67;48.26
75166;BME280;63747;48.042;10.088;2023-04-06T08:34:42;95337.66;;;7.05;47.74
75166;BME280;63747;48.042;10.088;2023-04-06T08:37:43;95339.78;;;7.20;47.67
75166;BME280;63747;48.042;10.088;2023-04-06T08:40:43;95338.78;;;7.39;46.89
75166;BME280;63747;48.042;10.088;2023-04-06T08:43:56;95333.91;;;7.61;45.40
75166;BME280;63747;48.042;10.088;2023-04-06T08:46:59;95334.06;;;7.78;44.70
75166;BME280;63747;48.042;10.088;2023-04-06T08:50:05;95337.97;;;7.56;43.26
75166;BME280;63747;48.042;10.088;2023-04-06T08:53:06;95333.44;;;7.84;43.76
75166;BME280;63747;48.042;10.088;2023-04-06T08:56:09;95334.84;;;8.14;43.39
75166;BME280;63747;48.042;10.088;2023-04-06T08:59:10;95341.00;;;8.23;42.22
75166;BME280;63747;48.042;10.088;2023-04-06T09:02:16;95336.06;;;8.28;41.70
75166;BME280;63747;48.042;10.088;2023-04-06T09:05:18;95336.78;;;8.72;42.56
75166;BME280;63747;48.042;10.088;2023-04-06T09:08:19;95337.94;;;9.20;41.22
75166;BME280;63747;48.042;10.088;2023-04-06T09:11:20;95326.31;;;8.96;41.20
75166;BME280;63747;48.042;10.088;2023-04-06T09:14:34;95315.88;;;9.53;41.31
75166;BME280;63747;48.042;10.088;2023-04-06T09:17:35;95317.56;;;9.63;40.58
75166;BME280;63747;48.042;10.088;2023-04-06T09:20:36;95315.53;;;10.05;40.50
75166;BME280;63747;48.042;10.088;2023-04-06T09:23:38;95317.28;;;10.46;39.69
75166;BME280;63747;48.042;10.088;2023-04-06T09:26:46;95317.53;;;10.75;38.54
75166;BME280;63747;48.042;10.088;2023-04-06T09:29:47;95313.13;;;10.43;36.98
75166;BME280;63747;48.042;10.088;2023-04-06T09:32:50;95317.13;;;10.47;37.76
75166;BME280;63747;48.042;10.088;2023-04-06T09:35:51;95316.38;;;10.70;36.62
75166;BME280;63747;48.042;10.088;2023-04-06T09:38:52;95313.31;;;10.97;37.56
75166;BME280;63747;48.042;10.088;2023-04-06T09:41:56;95305.75;;;11.17;37.10
75166;BME280;63747;48.042;10.088;2023-04-06T09:44:57;95303.56;;;11.21;36.67
75166;BME280;63747;48.042;10.088;2023-04-06T09:47:59;95304.91;;;10.85;35.49
75166;BME280;63747;48.042;10.088;2023-04-06T09:51:03;95309.91;;;10.00;35.19
75166;BME280;63747;48.042;10.088;2023-04-06T09:54:06;95307.94;;;9.37;36.66
75166;BME280;63747;48.042;10.088;2023-04-06T09:57:24;95305.25;;;9.29;36.75
75166;BME280;63747;48.042;10.088;2023-04-06T10:00:26;95301.91;;;9.11;35.71
75166;BME280;63747;48.042;10.088;2023-04-06T10:06:38;95298.34;;;9.69;35.86
75166;BME280;63747;48.042;10.088;2023-04-06T10:09:39;95291.91;;;9.79;35.78
75166;BME280;63747;48.042;10.088;2023-04-06T10:12:41;95284.13;;;9.70;35.92
75166;BME280;63747;48.042;10.088;2023-04-06T10:15:42;95291.06;;;9.46;35.80
75166;BME280;63747;48.042;10.088;2023-04-06T10:18:46;95289.06;;;9.89;34.80
75166;BME280;63747;48.042;10.088;2023-04-06T10:21:53;95293.22;;;9.67;35.18
75166;BME280;63747;48.042;10.088;2023-04-06T10:24:55;95293.25;;;9.01;34.24
75166;BME280;63747;48.042;10.088;2023-04-06T10:28:05;95292.44;;;9.08;33.87
75166;BME280;63747;48.042;10.088;2023-04-06T10:31:06;95290.41;;;9.44;34.85
75166;BME280;63747;48.042;10.088;2023-04-06T10:34:07;95273.38;;;9.79;34.29
75166;BME280;63747;48.042;10.088;2023-04-06T10:37:15;95284.78;;;9.64;34.64
75166;BME280;63747;48.042;10.088;2023-04-06T10:40:19;95287.94;;;9.43;34.32
75166;BME280;63747;48.042;10.088;2023-04-06T10:43:21;95293.59;;;8.89;34.52
75166;BME280;63747;48.042;10.088;2023-04-06T10:46:27;95274.97;;;9.15;34.62
75166;BME280;63747;48.042;10.088;2023-04-06T10:49:28;95286.66;;;9.05;35.11
75166;BME280;63747;48.042;10.088;2023-04-06T10:52:29;95283.75;;;9.24;35.10
75166;BME280;63747;48.042;10.088;2023-04-06T10:55:31;95279.41;;;10.21;34.81
75166;BME280;63747;48.042;10.088;2023-04-06T10:58:32;95282.41;;;10.10;33.12
75166;BME280;63747;48.042;10.088;2023-04-06T11:01:32;95275.47;;;10.17;32.86
75166;BME280;63747;48.042;10.088;2023-04-06T11:04:33;95267.31;;;10.82;33.39
75166;BME280;63747;48.042;10.088;2023-04-06T11:07:34;95268.28;;;11.66;32.41
75166;BME280;63747;48.042;10.088;2023-04-06T11:10:35;95262.69;;;11.98;31.24
75166;BME280;63747;48.042;10.088;2023-04-06T11:13:55;95261.72;;;12.29;32.69
75166;BME280;63747;48.042;10.088;2023-04-06T11:16:56;95259.47;;;12.92;31.79
75166;BME280;63747;48.042;10.088;2023-04-06T11:19:57;95257.09;;;13.33;31.32
75166;BME280;63747;48.042;10.088;2023-04-06T11:22:58;95254.13;;;13.64;32.04
75166;BME280;63747;48.042;10.088;2023-04-06T11:25:59;95258.16;;;13.17;29.95
75166;BME280;63747;48.042;10.088;2023-04-06T11:29:00;95255.09;;;12.84;31.11
75166;BME280;63747;48.042;10.088;2023-04-06T11:32:03;95249.00;;;12.54;30.82
75166;BME280;63747;48.042;10.088;2023-04-06T11:35:04;95257.88;;;12.32;30.53
75166;BME280;63747;48.042;10.088;2023-04-06T11:38:05;95249.78;;;12.69;30.30
75166;BME280;63747;48.042;10.088;2023-04-06T11:41:06;95247.72;;;12.86;29.59
75166;BME280;63747;48.042;10.088;2023-04-06T11:44:06;95235.25;;;13.38;31.77
75166;BME280;63747;48.042;10.088;2023-04-06T11:47:08;95237.75;;;13.67;31.20
75166;BME280;63747;48.042;10.088;2023-04-06T11:50:12;95245.88;;;14.36;30.43
75166;BME280;63747;48.042;10.088;2023-04-06T11:53:13;95242.78;;;14.67;29.14
75166;BME280;63747;48.042;10.088;2023-04-06T11:56:32;95225.63;;;14.90;28.91
75166;BME280;63747;48.042;10.088;2023-04-06T11:59:33;95221.38;;;15.02;27.90
75166;BME280;63747;48.042;10.088;2023-04-06T12:02:35;95223.53;;;14.72;28.54
75166;BME280;63747;48.042;10.088;2023-04-06T12:05:36;95220.88;;;14.79;28.85
75166;BME280;63747;48.042;10.088;2023-04-06T12:08:37;95212.50;;;14.88;29.72
75166;BME280;63747;48.042;10.088;2023-04-06T12:11:38;95222.13;;;14.89;29.37
75166;BME280;63747;48.042;10.088;2023-04-06T12:14:38;95222.47;;;14.66;27.28
75166;BME280;63747;48.042;10.088;2023-04-06T12:17:39;95223.72;;;14.36;27.91
75166;BME280;63747;48.042;10.088;2023-04-06T12:20:40;95213.34;;;14.48;27.89
75166;BME280;63747;48.042;10.088;2023-04-06T12:23:40;95215.19;;;14.19;28.06
75166;BME280;63747;48.042;10.088;2023-04-06T12:26:42;95207.19;;;14.19;28.31
75166;BME280;63747;48.042;10.088;2023-04-06T12:29:43;95210.22;;;14.37;28.18
75166;BME280;63747;48.042;10.088;2023-04-06T12:32:43;95207.16;;;14.88;26.95
75166;BME280;63747;48.042;10.088;2023-04-06T12:35:44;95208.44;;;15.06;27.91
75166;BME280;63747;48.042;10.088;2023-04-06T12:38:46;95210.78;;;14.74;28.41
75166;BME280;63747;48.042;10.088;2023-04-06T12:41:47;95211.66;;;14.40;28.12
75166;BME280;63747;48.042;10.088;2023-04-06T12:44:48;95214.78;;;14.44;27.44
75166;BME280;63747;48.042;10.088;2023-04-06T12:47:48;95212.28;;;14.14;28.37
75166;BME280;63747;48.042;10.088;2023-04-06T12:51:01;95192.50;;;14.23;27.73
75166;BME280;63747;48.042;10.088;2023-04-06T12:54:02;95201.81;;;14.88;28.39
75166;BME280;63747;48.042;10.088;2023-04-06T12:57:02;95199.34;;;14.80;26.83
75166;BME280;63747;48.042;10.088;2023-04-06T13:00:04;95201.78;;;14.34;27.37
75166;BME280;63747;48.042;10.088;2023-04-06T13:03:05;95199.69;;;14.01;27.97
75166;BME280;63747;48.042;10.088;2023-04-06T13:06:06;95206.44;;;13.48;28.41
75166;BME280;63747;48.042;10.088;2023-04-06T13:09:10;95195.97;;;13.68;27.64
75166;BME280;63747;48.042;10.088;2023-04-06T13:12:11;95198.88;;;14.01;27.73
75166;BME280;63747;48.042;10.088;2023-04-06T13:15:12;95192.97;;;14.05;26.94
75166;BME280;63747;48.042;10.088;2023-04-06T13:18:12;95190.88;;;14.01;27.58
75166;BME280;63747;48.042;10.088;2023-04-06T13:21:14;95185.84;;;13.84;27.88
75166;BME280;63747;48.042;10.088;2023-04-06T13:24:19;95179.41;;;14.35;27.34
75166;BME280;63747;48.042;10.088;2023-04-06T13:27:20;95187.34;;;13.94;27.50
75166;BME280;63747;48.042;10.088;2023-04-06T13:30:21;95184.06;;;13.64;28.22
75166;BME280;63747;48.042;10.088;2023-04-06T13:33:22;95189.91;;;13.52;28.76
75166;BME280;63747;48.042;10.088;2023-04-06T13:36:22;95177.59;;;13.51;27.95
75166;BME280;63747;48.042;10.088;2023-04-06T13:39:23;95179.34;;;13.16;28.46
75166;BME280;63747;48.042;10.088;2023-04-06T13:42:24;95178.63;;;12.93;27.97
75166;BME280;63747;48.042;10.088;2023-04-06T13:45:25;95169.00;;;13.49;28.73
75166;BME280;63747;48.042;10.088;2023-04-06T13:48:25;95160.53;;;14.02;28.06
75166;BME280;63747;48.042;10.088;2023-04-06T13:51:26;95166.94;;;14.07;27.96
75166;BME280;63747;48.042;10.088;2023-04-06T13:54:27;95167.13;;;14.40;28.15
75166;BME280;63747;48.042;10.088;2023-04-06T13:57:28;95168.50;;;14.71;28.81
75166;BME280;63747;48.042;10.088;2023-04-06T14:00:29;95157.91;;;14.97;27.74
75166;BME280;63747;48.042;10.088;2023-04-06T14:03:30;95163.25;;;15.11;27.84
75166;BME280;63747;48.042;10.088;2023-04-06T14:06:31;95161.13;;;14.73;26.72
75166;BME280;63747;48.042;10.088;2023-04-06T14:09:32;95163.94;;;14.17;28.05
75166;BME280;63747;48.042;10.088;2023-04-06T14:12:33;95164.94;;;14.51;26.80
75166;BME280;63747;48.042;10.088;2023-04-06T14:15:34;95159.69;;;14.71;27.84
75166;BME280;63747;48.042;10.088;2023-04-06T14:18:36;95153.38;;;14.91;27.51
75166;BME280;63747;48.042;10.088;2023-04-06T14:21:40;95157.25;;;14.89;25.62
75166;BME280;63747;48.042;10.088;2023-04-06T14:24:41;95164.28;;;14.42;25.97
75166;BME280;63747;48.042;10.088;2023-04-06T14:27:42;95152.47;;;14.58;27.56
75166;BME280;63747;48.042;10.088;2023-04-06T14:30:43;95146.84;;;15.01;26.68
75166;BME280;63747;48.042;10.088;2023-04-06T14:33:44;95153.19;;;15.00;27.04
75166;BME280;63747;48.042;10.088;2023-04-06T14:36:45;95151.66;;;14.64;26.52
75166;BME280;63747;48.042;10.088;2023-04-06T14:39:46;95153.09;;;14.66;26.57
75166;BME280;63747;48.042;10.088;2023-04-06T14:42:46;95151.94;;;14.95;27.33
75166;BME280;63747;48.042;10.088;2023-04-06T14:45:47;95154.44;;;15.17;26.88
75166;BME280;63747;48.042;10.088;2023-04-06T14:48:48;95147.84;;;15.00;25.76
75166;BME280;63747;48.042;10.088;2023-04-06T14:51:49;95154.63;;;14.95;25.64
75166;BME280;63747;48.042;10.088;2023-04-06T14:54:51;95154.91;;;14.59;26.22
75166;BME280;63747;48.042;10.088;2023-04-06T14:57:52;95153.75;;;13.99;26.28
75166;BME280;63747;48.042;10.088;2023-04-06T15:00:57;95156.38;;;13.37;25.64
75166;BME280;63747;48.042;10.088;2023-04-06T15:03:58;95144.31;;;13.41;26.56
75166;BME280;63747;48.042;10.088;2023-04-06T15:06:59;95151.34;;;13.48;26.72
75166;BME280;63747;48.042;10.088;2023-04-06T15:10:00;95146.75;;;13.14;26.50
75166;BME280;63747;48.042;10.088;2023-04-06T15:13:01;95147.16;;;12.96;27.18
75166;BME280;63747;48.042;10.088;2023-04-06T15:16:02;95145.81;;;12.86;26.55
75166;BME280;63747;48.042;10.088;2023-04-06T15:19:03;95148.34;;;12.94;27.89
75166;BME280;63747;48.042;10.088;2023-04-06T15:22:04;95140.09;;;13.25;27.68
75166;BME280;63747;48.042;10.088;2023-04-06T15:25:05;95139.34;;;13.31;27.71
75166;BME280;63747;48.042;10.088;2023-04-06T15:28:06;95139.19;;;13.39;27.05
75166;BME280;63747;48.042;10.088;2023-04-06T15:31:17;95136.88;;;13.29;27.82
75166;BME280;63747;48.042;10.088;2023-04-06T15:34:20;95130.84;;;13.42;28.11
75166;BME280;63747;48.042;10.088;2023-04-06T15:37:20;95133.59;;;13.55;28.06
75166;BME280;63747;48.042;10.088;2023-04-06T15:40:21;95134.78;;;13.53;28.42
75166;BME280;63747;48.042;10.088;2023-04-06T15:43:22;95129.97;;;13.35;28.63
75166;BME280;63747;48.042;10.088;2023-04-06T15:46:23;95134.06;;;13.38;28.92
75166;BME280;63747;48.042;10.088;2023-04-06T15:49:24;95136.00;;;13.22;27.77
75166;BME280;63747;48.042;10.088;2023-04-06T15:52:25;95137.03;;;12.85;28.54
75166;BME280;63747;48.042;10.088;2023-04-06T15:55:26;95132.25;;;12.80;28.34